Terminal Aerodrome Forecast
Issued by NWS Charleston, WV

Current Version | Previous Version | Graphics & Text | Print | Product List | Glossary On
Versions: 1 2 3 4 5 6 7 8 9 10 11 12 13 14 15 16 17 18 19 20 21 22 23
000
FTUS41 KRLX 270244 AAA
TAFHTS
TAF AMD
KHTS 270244Z 2703/2724 20004KT P6SM SCT050
     FM270900 VRB02KT 4SM BR SCT080
     FM271100 VRB02KT 2SM BR SCT001
     FM271300 VRB03KT P6SM SCT070=

USA.gov is the U.S. government's official web portal to all federal, state and local government web resources and services.